Map

Track Data

SID SEASON NUMBER BASIN SUBBASIN NAME ISO_TIME NATURE LAT LON WMO_WIND WMO_PRES WMO_AGENCY TRACK_TYPE DIST2LAND LANDFALL IFLAG USA_AGENCY USA_ATCF_ID USA_LAT USA_LON USA_RECORD USA_STATUS USA_WIND USA_PRES USA_SSHS USA_R34_NE USA_R34_SE USA_R34_SW USA_R34_NW USA_R50_NE USA_R50_SE USA_R50_SW USA_R50_NW USA_R64_NE USA_R64_SE USA_R64_SW USA_R64_NW USA_POCI USA_ROCI USA_RMW USA_EYE TOKYO_LAT TOKYO_LON TOKYO_GRADE TOKYO_WIND TOKYO_PRES TOKYO_R50_DIR TOKYO_R50_LONG TOKYO_R50_SHORT TOKYO_R30_DIR TOKYO_R30_LONG TOKYO_R30_SHORT TOKYO_LAND CMA_LAT CMA_LON CMA_CAT CMA_WIND CMA_PRES HKO_LAT HKO_LON HKO_CAT HKO_WIND HKO_PRES NEWDELHI_LAT NEWDELHI_LON NEWDELHI_GRADE NEWDELHI_WIND NEWDELHI_PRES NEWDELHI_CI NEWDELHI_DP NEWDELHI_POCI REUNION_LAT REUNION_LON REUNION_TYPE REUNION_WIND REUNION_PRES REUNION_TNUM REUNION_CI REUNION_RMW REUNION_R34_NE REUNION_R34_SE REUNION_R34_SW REUNION_R34_NW REUNION_R50_NE REUNION_R50_SE REUNION_R50_SW REUNION_R50_NW REUNION_R64_NE REUNION_R64_SE REUNION_R64_SW REUNION_R64_NW BOM_LAT BOM_LON BOM_TYPE BOM_WIND BOM_PRES BOM_TNUM BOM_CI BOM_RMW BOM_R34_NE BOM_R34_SE BOM_R34_SW BOM_R34_NW BOM_R50_NE BOM_R50_SE BOM_R50_SW BOM_R50_NW BOM_R64_NE BOM_R64_SE BOM_R64_SW BOM_R64_NW BOM_ROCI BOM_POCI BOM_EYE BOM_POS_METHOD BOM_PRES_METHOD NADI_LAT NADI_LON NADI_CAT NADI_WIND NADI_PRES WELLINGTON_LAT WELLINGTON_LON WELLINGTON_WIND WELLINGTON_PRES DS824_LAT DS824_LON DS824_STAGE DS824_WIND DS824_PRES TD9636_LAT TD9636_LON TD9636_STAGE TD9636_WIND TD9636_PRES TD9635_LAT TD9635_LON TD9635_WIND TD9635_PRES TD9635_ROCI NEUMANN_LAT NEUMANN_LON NEUMANN_CLASS NEUMANN_WIND NEUMANN_PRES MLC_LAT MLC_LON MLC_CLASS MLC_WIND MLC_PRES USA_GUST BOM_GUST BOM_GUST_PER REUNION_GUST REUNION_GUST_PER USA_SEAHGT USA_SEARAD_NE USA_SEARAD_SE USA_SEARAD_SW USA_SEARAD_NW STORM_SPEED STORM_DIR
1861315S10085 1862 35 SI MM NOT_NAMED 1861-11-11 06:00:00 NR -9.70000 85.0000 main 1780 1780 _____O________ -1 -9.70000 85.0000 99 9.90000 1 251
1861315S10085 1862 35 SI MM NOT_NAMED 1861-11-11 09:00:00 NR -9.72254 84.9310 main 1789 1789 _____P________ -1 -9.72254 84.9310 99 2 251
1861315S10085 1862 35 SI MM NOT_NAMED 1861-11-11 12:00:00 NR -9.74771 84.8530 main 1789 1789 _____P________ -1 -9.74771 84.8530 99 2 252
1861315S10085 1862 35 SI MM NOT_NAMED 1861-11-11 15:00:00 NR -9.77814 84.7573 main 1804 1804 _____P________ -1 -9.77814 84.7573 99 2 252
1861315S10085 1862 35 SI MM NOT_NAMED 1861-11-11 18:00:00 NR -9.81644 84.6349 main 1814 1811 _____P________ -1 -9.81644 84.6349 99 3 253
1861315S10085 1862 35 SI MM NOT_NAMED 1861-11-11 21:00:00 NR -9.86521 84.4770 main 1822 1817 _____P________ -1 -9.86521 84.4770 99 4 253
1861315S10085 1862 35 SI MM NOT_NAMED 1861-11-12 00:00:00 NR -9.92704 84.2745 main 1817 1814 _____P________ -1 -9.92704 84.2745 99 5 253
1861315S10085 1862 35 SI MM NOT_NAMED 1861-11-12 03:00:00 NR -10.0045 84.0185 main 1821 1818 _____P________ -1 -10.0045 84.0185 99 6 253
1861315S10085 1862 35 SI MM NOT_NAMED 1861-11-12 06:00:00 NR -10.1000 83.7000 main 1825 1821 _____O________ -1 -10.1000 83.7000 99 9.90000 7 253
1861315S10085 1862 35 SI MM NOT_NAMED 1861-11-12 09:00:00 NR -10.2152 83.3129 main 1828 1826 _____P________ -1 -10.2152 83.3129 99 9 253
1861315S10085 1862 35 SI MM NOT_NAMED 1861-11-12 12:00:00 NR -10.3486 82.8626 main 1833 1833 _____P________ -1 -10.3486 82.8626 99 10 253
1861315S10085 1862 35 SI MM NOT_NAMED 1861-11-12 15:00:00 NR -10.4978 82.3575 main 1848 1846 _____P________ -1 -10.4978 82.3575 99 11 253
1861315S10085 1862 35 SI MM NOT_NAMED 1861-11-12 18:00:00 NR -10.6604 81.8058 main 1864 1862 _____P________ -1 -10.6604 81.8058 99 12 253
1861315S10085 1862 35 SI MM NOT_NAMED 1861-11-12 21:00:00 NR -10.8342 81.2160 main 1872 1872 _____P________ -1 -10.8342 81.2160 99 12 253
1861315S10085 1862 35 SI MM NOT_NAMED 1861-11-13 00:00:00 NR -11.0168 80.5962 main 1893 1893 _____P________ -1 -11.0168 80.5962 99 13 253
1861315S10085 1862 35 SI MM NOT_NAMED 1861-11-13 03:00:00 NR -11.2061 79.9548 main 1917 1917 _____P________ -1 -11.2061 79.9548 99 13 253
1861315S10085 1862 35 SI MM NOT_NAMED 1861-11-13 06:00:00 NR -11.4000 79.3000 reunion main 1943 1943 _____O________ -1 -11.4000 79.3000 99 9.90000 14 253
1861315S10085 1862 35 SI MM NOT_NAMED 1861-11-13 09:00:00 NR -11.6069 78.6044 main 1973 1973 _____P________ -1 -11.6069 78.6044 99 15 253
1861315S10085 1862 35 SI MM NOT_NAMED 1861-11-13 12:00:00 NR -11.8226 77.8791 main 2005 2005 _____P________ -1 -11.8226 77.8791 99 15 253
1861315S10085 1862 35 SI MM NOT_NAMED 1861-11-13 15:00:00 NR -12.0414 77.1415 main 2042 2042 _____P________ -1 -12.0414 77.1415 99 15 253
1861315S10085 1862 35 SI MM NOT_NAMED 1861-11-13 18:00:00 NR -12.2580 76.4095 main 2091 2091 _____P________ -1 -12.2580 76.4095 99 15 253
1861315S10085 1862 35 SI MM NOT_NAMED 1861-11-13 21:00:00 NR -12.4671 75.7012 main 2097 2029 _____P________ -1 -12.4671 75.7012 99 14 253
1861315S10085 1862 35 SI MM NOT_NAMED 1861-11-14 00:00:00 NR -12.6637 75.0347 main 2019 1966 _____P________ -1 -12.6637 75.0347 99 13 253
1861315S10085 1862 35 SI MM NOT_NAMED 1861-11-14 03:00:00 NR -12.8429 74.4282 main 1956 1898 _____P________ -1 -12.8429 74.4282 99 12 253
1861315S10085 1862 35 SI MM NOT_NAMED 1861-11-14 06:00:00 NR -13.0000 73.9000 reunion main 1898 1854 _____O________ -1 -13.0000 73.9000 99 9.90000 10 253
1861315S10085 1862 35 SI MM NOT_NAMED 1861-11-14 09:00:00 NR -13.1318 73.4633 main 1854 1811 _____P________ -1 -13.1318 73.4633 99 8 253
1861315S10085 1862 35 SI MM NOT_NAMED 1861-11-14 12:00:00 NR -13.2405 73.1113 main 1811 1777 _____P________ -1 -13.2405 73.1113 99 6 252
1861315S10085 1862 35 SI MM NOT_NAMED 1861-11-14 15:00:00 NR -13.3297 72.8318 main 1777 1753 _____P________ -1 -13.3297 72.8318 99 5 251
1861315S10085 1862 35 SI MM NOT_NAMED 1861-11-14 18:00:00 NR -13.4029 72.6128 main 1753 1738 _____P________ -1 -13.4029 72.6128 99 4 251
1861315S10085 1862 35 SI MM NOT_NAMED 1861-11-14 21:00:00 NR -13.4633 72.4422 main 1728 1719 _____P________ -1 -13.4633 72.4422 99 3 249
1861315S10085 1862 35 SI MM NOT_NAMED 1861-11-15 00:00:00 NR -13.5141 72.3080 main 1719 1704 _____P________ -1 -13.5141 72.3080 99 3 248
1861315S10085 1862 35 SI MM NOT_NAMED 1861-11-15 03:00:00 NR -13.5586 72.1980 main 1704 1694 _____P________ -1 -13.5586 72.1980 99 2 247
1861315S10085 1862 35 SI MM NOT_NAMED 1861-11-15 06:00:00 NR -13.6000 72.1000 reunion main 1694 _____O________ -1 -13.6000 72.1000 99 9.90000 2 247

About IBTrACS Database

This database is a web-friendly format of International Best Track Archive for Climate Stewardship (IBTrACS), a global best track data archive curated by NOAA dating back to 1842.

Updated: 2021-10-08